In Rescue
 
Open Full Screen Window  High Contrast Mode
Wind Gusting 29 knots
13
November 15, 2020 1:40 PM EST
Weather Information
Wind Direction
  220 °
Wind Speed
  13 kt (15 mph)
Wind Gust
  29 kt (33 mph)
Variable Wind
180°
250°
Altimeter
29.45 in
Visibility
10 SM
Temperature
13° C
55° F
Dewpoint
09° C
48° F
Humidity
77%
1hr Rain Fall
00.00 in.
24hr Rain Fall
00.09 in.
Sky Condition
Overcast @ 2,500 ft
Broken @ 1,900 ft
MVFR

METAR KPOV 151840Z AUTO 22013G29KT 180V250 10SM BKN019 OVC025 13/09 A2945 RMK AO2 T01320086 PWINO

FAA Disclaimer: The data displayed is for advisory purposes only and is not to be used for flight planning or operations.